createdAt,value
2019-03-29T00:00:10.091Z,9.13
2019-03-29T00:10:18.368Z,8.18
2019-03-29T00:15:22.718Z,8.48
2019-03-29T00:20:28.047Z,6.85
2019-03-29T00:25:33.116Z,9.13
2019-03-29T00:30:37.705Z,8.03
2019-03-29T00:35:42.771Z,9.08
2019-03-29T00:40:47.477Z,8.93
2019-03-29T00:50:55.092Z,9.38
2019-03-29T00:56:00.286Z,9.15
2019-03-29T01:01:05.018Z,9.35
2019-03-29T01:06:09.728Z,9.48
2019-03-29T01:16:17.889Z,8.75
2019-03-29T01:26:27.038Z,10.38
2019-03-29T01:31:33.435Z,9.23
2019-03-29T01:36:40.539Z,9.30
2019-03-29T01:41:44.892Z,8.40
2019-03-29T01:46:49.756Z,8.28
2019-03-29T01:51:54.385Z,9.78
2019-03-29T02:02:02.297Z,9.15
2019-03-29T02:12:10.110Z,9.88
2019-03-29T02:22:17.626Z,8.70
2019-03-29T02:27:23.257Z,8.60
2019-03-29T02:32:29.736Z,10.10
2019-03-29T02:37:34.196Z,9.63
2019-03-29T02:42:38.688Z,9.28
2019-03-29T02:47:43.105Z,7.50
2019-03-29T02:52:47.536Z,8.38
2019-03-29T02:57:52.091Z,8.70
2019-03-29T03:02:56.831Z,7.85
2019-03-29T03:08:01.215Z,8.95
2019-03-29T03:13:05.748Z,7.83
2019-03-29T03:18:10.023Z,9.58
2019-03-29T03:23:17.586Z,9.95
2019-03-29T03:28:22.294Z,9.65
2019-03-29T03:33:27.231Z,9.50
2019-03-29T03:38:31.759Z,9.73
2019-03-29T03:43:36.126Z,9.13
2019-03-29T03:48:40.426Z,9.63
2019-03-29T03:53:45.103Z,9.73
2019-03-29T03:58:49.745Z,9.35
2019-03-29T04:03:54.059Z,8.60
2019-03-29T04:08:58.684Z,8.50
2019-03-29T04:14:03.595Z,9.15
2019-03-29T04:19:07.960Z,9.28
2019-03-29T04:24:12.916Z,9.33
2019-03-29T04:29:17.261Z,6.12
2019-03-29T04:34:21.587Z,4.42
2019-03-29T04:39:25.950Z,4.10
2019-03-29T04:44:31.850Z,6.40
2019-03-29T04:49:38.548Z,6.50
2019-03-29T04:54:44.029Z,8.23
2019-03-29T04:59:48.331Z,8.65
2019-03-29T05:04:52.746Z,7.17
2019-03-29T05:09:57.351Z,6.05
2019-03-29T05:15:02.255Z,7.65
2019-03-29T05:20:07.664Z,7.90
2019-03-29T05:25:11.977Z,8.60
2019-03-29T05:30:16.290Z,7.47
2019-03-29T05:35:20.926Z,7.10
2019-03-29T05:40:34.885Z,9.48
2019-03-29T05:45:31.848Z,10.23
2019-03-29T05:50:37.048Z,12.20
2019-03-29T05:55:41.896Z,11.78
2019-03-29T06:00:46.413Z,15.25
2019-03-29T06:10:53.941Z,13.68
2019-03-29T06:15:58.256Z,14.25
2019-03-29T06:21:03.097Z,14.18
2019-03-29T06:26:07.478Z,15.25
2019-03-29T06:31:11.828Z,14.30
2019-03-29T06:36:16.193Z,15.40
2019-03-29T06:41:23.381Z,15.58
2019-03-29T06:46:27.795Z,14.35
2019-03-29T06:51:32.208Z,13.72
2019-03-29T06:56:38.359Z,14.47
2019-03-29T07:01:42.819Z,13.80
2019-03-29T07:06:47.464Z,12.33
2019-03-29T07:11:52.457Z,11.33
2019-03-29T07:16:57.355Z,11.85
2019-03-29T07:22:02.312Z,11.43
2019-03-29T07:27:06.778Z,10.50
2019-03-29T07:32:12.135Z,10.13
2019-03-29T07:37:16.520Z,9.40
2019-03-29T07:42:21.353Z,10.70
2019-03-29T07:47:26.647Z,10.72
2019-03-29T07:52:31.253Z,8.43
2019-03-29T07:57:35.691Z,9.03
2019-03-29T08:02:40.543Z,9.55
2019-03-29T08:07:44.887Z,9.38
2019-03-29T08:12:49.802Z,9.23
2019-03-29T08:17:54.245Z,8.70
2019-03-29T08:22:58.691Z,8.03
2019-03-29T08:28:03.245Z,8.40
2019-03-29T08:33:08.384Z,8.25
2019-03-29T08:38:13.766Z,8.43
2019-03-29T08:43:18.075Z,7.17
2019-03-29T08:48:23.545Z,7.62
2019-03-29T08:53:28.186Z,8.80
2019-03-29T08:58:33.103Z,8.88
2019-03-29T09:03:37.407Z,8.48
2019-03-29T09:08:41.955Z,8.00
2019-03-29T09:13:46.597Z,6.90
2019-03-29T09:18:51.679Z,8.05
2019-03-29T09:23:56.082Z,7.15
2019-03-29T09:29:00.653Z,5.58
2019-03-29T09:34:04.945Z,6.80
2019-03-29T09:39:09.666Z,6.75
2019-03-29T09:49:18.403Z,6.62
2019-03-29T09:54:24.476Z,5.70
2019-03-29T09:59:28.778Z,5.30
2019-03-29T10:04:33.182Z,5.47
2019-03-29T10:09:37.450Z,5.80
2019-03-29T10:14:42.228Z,5.47
2019-03-29T10:24:51.034Z,6.30
2019-03-29T10:29:55.421Z,5.05
2019-03-29T10:34:59.758Z,4.87
2019-03-29T10:40:04.278Z,4.08
2019-03-29T10:45:09.313Z,4.90
2019-03-29T10:50:14.478Z,5.47
2019-03-29T10:55:18.799Z,5.87
2019-03-29T11:00:40.404Z,5.10
2019-03-29T11:05:44.811Z,4.75
2019-03-29T11:10:50.412Z,5.50
2019-03-29T11:15:54.791Z,4.55
2019-03-29T11:20:59.656Z,5.42
2019-03-29T11:26:04.353Z,5.80
2019-03-29T11:36:14.571Z,5.15
2019-03-29T11:41:18.905Z,5.33
2019-03-29T11:46:26.673Z,5.00
2019-03-29T11:51:34.831Z,6.40
2019-03-29T11:56:39.253Z,5.40
2019-03-29T12:01:44.385Z,5.47
2019-03-29T12:06:49.181Z,5.22
2019-03-29T12:11:53.816Z,6.40
2019-03-29T12:16:58.408Z,6.10
2019-03-29T12:22:02.681Z,5.53
2019-03-29T12:27:07.685Z,6.20
2019-03-29T12:32:12.190Z,5.60
2019-03-29T12:37:19.503Z,5.95
2019-03-29T12:42:24.897Z,5.95
2019-03-29T12:47:29.196Z,6.30
2019-03-29T12:52:33.542Z,5.92
2019-03-29T12:57:39.075Z,6.65
2019-03-29T13:02:49.350Z,5.87
2019-03-29T13:07:53.892Z,5.90
2019-03-29T13:13:00.752Z,6.37
2019-03-29T13:18:13.357Z,6.40
2019-03-29T13:23:17.716Z,6.97
2019-03-29T13:28:22.267Z,5.83
2019-03-29T13:33:26.744Z,5.62
2019-03-29T13:38:31.102Z,5.28
2019-03-29T13:43:35.683Z,6.40
2019-03-29T13:48:40.209Z,5.85
2019-03-29T13:53:44.570Z,5.42
2019-03-29T13:58:49.803Z,5.75
2019-03-29T14:03:55.960Z,5.80
2019-03-29T14:09:01.877Z,4.92
2019-03-29T14:14:10.306Z,6.05
2019-03-29T14:19:19.791Z,5.47
2019-03-29T14:24:25.835Z,5.15
2019-03-29T14:29:31.535Z,5.70
2019-03-29T14:34:42.712Z,6.35
2019-03-29T14:39:51.448Z,5.87
2019-03-29T14:44:57.986Z,6.20
2019-03-29T14:50:06.990Z,20.70
2019-03-29T14:55:15.151Z,7.20
2019-03-29T15:00:42.761Z,7.17
2019-03-29T15:05:47.179Z,6.67
2019-03-29T15:10:51.536Z,5.87
2019-03-29T15:15:55.915Z,5.58
2019-03-29T15:21:03.325Z,6.40
2019-03-29T15:26:08.022Z,6.03
2019-03-29T15:36:19.876Z,6.28
2019-03-29T15:41:24.244Z,6.92
2019-03-29T15:46:28.690Z,7.05
2019-03-29T15:51:33.043Z,6.60
2019-03-29T15:56:37.745Z,6.47
2019-03-29T16:01:45.070Z,6.58
2019-03-29T16:06:53.501Z,5.72
2019-03-29T16:12:02.450Z,6.25
2019-03-29T16:17:07.179Z,6.55
2019-03-29T16:22:12.823Z,7.00
2019-03-29T16:32:20.746Z,6.22
2019-03-29T16:37:27.289Z,6.78
2019-03-29T16:42:33.215Z,6.85
2019-03-29T16:47:37.888Z,6.37
2019-03-29T16:57:46.402Z,7.33
2019-03-29T17:02:52.338Z,7.33
2019-03-29T17:07:58.447Z,7.22
2019-03-29T17:13:02.838Z,7.62
2019-03-29T17:18:07.294Z,8.08
2019-03-29T17:23:11.707Z,6.97
2019-03-29T17:28:16.154Z,7.37
2019-03-29T17:33:22.374Z,7.12
2019-03-29T17:38:26.746Z,7.67
2019-03-29T17:43:31.176Z,7.80
2019-03-29T17:48:35.516Z,8.30
2019-03-29T17:53:40.239Z,7.10
2019-03-29T18:03:48.503Z,7.28
2019-03-29T18:08:52.891Z,6.12
2019-03-29T18:13:58.104Z,5.83
2019-03-29T18:19:02.683Z,6.50
2019-03-29T18:24:08.812Z,7.25
2019-03-29T18:29:13.171Z,7.08
2019-03-29T18:34:17.491Z,7.10
2019-03-29T18:39:21.816Z,6.25
2019-03-29T18:44:26.128Z,7.12
2019-03-29T18:49:30.762Z,8.18
2019-03-29T18:54:35.030Z,8.73
2019-03-29T18:59:40.580Z,6.95
2019-03-29T19:04:44.869Z,9.45
2019-03-29T19:09:49.455Z,8.20
2019-03-29T19:14:55.313Z,9.38
2019-03-29T19:20:01.015Z,8.70
2019-03-29T19:25:07.380Z,7.75
2019-03-29T19:30:11.923Z,8.08
2019-03-29T19:35:16.339Z,8.30
2019-03-29T19:40:20.926Z,8.03
2019-03-29T19:45:47.992Z,9.00
2019-03-29T19:50:52.667Z,9.83
2019-03-29T20:01:02.452Z,9.45
2019-03-29T20:06:06.567Z,10.55
2019-03-29T20:11:10.914Z,8.30
2019-03-29T20:16:16.923Z,8.23
2019-03-29T20:21:21.373Z,8.78
2019-03-29T20:26:29.086Z,7.53
2019-03-29T20:31:33.630Z,8.98
2019-03-29T20:36:48.806Z,9.08
2019-03-29T20:41:53.131Z,9.33
2019-03-29T20:46:57.483Z,9.30
2019-03-29T20:52:06.960Z,10.58
2019-03-29T20:57:11.283Z,9.38
2019-03-29T21:02:15.808Z,12.63
2019-03-29T21:07:20.633Z,10.10
2019-03-29T21:12:25.006Z,11.33
2019-03-29T21:17:29.376Z,12.15
2019-03-29T21:22:33.796Z,11.97
2019-03-29T21:27:38.908Z,12.47
2019-03-29T21:32:43.252Z,11.53
2019-03-29T21:37:48.409Z,10.20
2019-03-29T21:42:52.969Z,9.78
2019-03-29T21:48:04.884Z,9.33
2019-03-29T21:53:03.984Z,10.40
2019-03-29T21:58:09.040Z,10.40
2019-03-29T22:03:13.638Z,11.63
2019-03-29T22:08:18.230Z,12.00
2019-03-29T22:13:22.718Z,12.93
2019-03-29T22:18:37.403Z,13.38
2019-03-29T22:23:33.608Z,14.13
2019-03-29T22:28:38.086Z,10.90
2019-03-29T22:33:42.481Z,11.68
2019-03-29T22:38:47.193Z,12.43
2019-03-29T22:43:51.980Z,10.35
2019-03-29T22:53:59.728Z,9.78
2019-03-29T22:59:04.601Z,8.93
2019-03-29T23:04:09.736Z,11.03
2019-03-29T23:09:14.496Z,8.38
2019-03-29T23:19:22.366Z,9.10
2019-03-29T23:24:26.993Z,7.12
2019-03-29T23:34:35.460Z,8.80
2019-03-29T23:39:40.069Z,7.55
2019-03-29T23:49:47.659Z,6.70
2019-03-29T23:54:52.316Z,6.37
